Stations météo

réclame
Mon MeteoGroup
Schmücke, Allemagne (10552): Température de l'air & dewpoint: 11.10.2017 11:00:00 - 17.10.2017 11:00:00 (CEST)Schmücke, Allemagne (10552): Température de l'air 5cm & Température de l'air -5cm: 11.10.2017 11:00:00 - 17.10.2017 11:00:00 (CEST)Schmücke, Allemagne (10552): Température de l'air -20cm & Température de l'air -100cm: 11.10.2017 11:00:00 - 17.10.2017 11:00:00 (CEST)Schmücke, Allemagne (10552): Vitesse du vent & gusts: 11.10.2017 11:00:00 - 17.10.2017 11:00:00 (CEST)Schmücke, Allemagne (10552): Direction du vent: 11.10.2017 11:00:00 - 17.10.2017 11:00:00 (CEST)Schmücke, Allemagne (10552): visibility: 11.10.2017 11:00:00 - 17.10.2017 11:00:00 (CEST)Schmücke, Allemagne (10552): Ensoleillement: 11.10.2017 11:00:00 - 17.10.2017 11:00:00 (CEST)Schmücke, Allemagne (10552): Quantités de précipitations: 11.10.2017 11:00:00 - 17.10.2017 11:00:00 (CEST)
Date & Time tt [°C] td [°C] tt 5cm [°C] tt -5cm [°C] tt -20cm [°C] tt -100cm [°C] ff [km/h] ff [knt] fx [km/h] fx [knt] dd vv [km] sd [min] rr [mm]
17.10.2017 11:00:00 14,0 9,5 15,6 9,7 9,8 10,0 15 8 25 13 SW 19 60 0,0
17.10.2017 10:00:00 12,3 9,3 12,7 8,3 9,9 10,0 16 9 22 12 SW 13 60 0,0
17.10.2017 09:00:00 11,0 8,2 8,0 7,9 10,0 10,0 14 8 18 10 SW 19 56 0,0
17.10.2017 08:00:00 10,6 8,2 8,5 8,0 10,2 10,0 11 6 20 11 SW 13 0 0,0
17.10.2017 07:00:00 11,3 8,1 8,2 8,4 10,4 10,0 8 5 22 12 SSW 16 0 0,0
17.10.2017 06:00:00 11,9 8,2 9,7 8,6 10,6 10,0 16 9 29 16 SW 19 0 0,0
17.10.2017 05:00:00 11,7 8,3 9,5 8,8 10,7 9,9 15 8 24 13 SW 21 0 0,0
17.10.2017 04:00:00 12,2 8,9 10,2 9,1 10,9 9,9 13 7 24 13 SW 18 0 0,0
17.10.2017 03:00:00 12,5 9,4 10,4 9,4 11,1 9,9 13 7 26 14 SW 18 0 0,0
17.10.2017 02:00:00 12,6 9,5 10,7 9,7 11,3 9,9 14 8 28 15 SW 17 0 0,0
17.10.2017 01:00:00 12,9 9,7 11,2 9,9 11,5 9,9 13 7 22 12 SW 17 0 0,0
17.10.2017 00:00:00 12,5 10,1 9,6 10,2 11,7 9,9 15 8 26 14 SW 15 0 0,0
16.10.2017 23:00:00 12,9 9,5 10,9 10,5 11,9 9,9 17 9 26 14 SW 22 0 0,0
16.10.2017 22:00:00 12,2 9,5 9,7 10,9 12,2 9,9 16 9 24 13 SW 18 0 0,0
16.10.2017 21:00:00 12,9 9,3 10,8 11,5 12,4 9,9 14 8 18 10 WSW 20 0 0,0
16.10.2017 20:00:00 13,1 8,7 10,7 12,2 12,6 9,9 10 5 13 7 WSW 28 0 0,0
16.10.2017 19:00:00 13,4 8,3 11,1 13,3 12,6 9,9 12 7 16 9 SW 28 0 0,0
16.10.2017 18:00:00 13,9 10,0 12,1 14,8 12,5 9,9 10 5 20 11 WSW 22 38 0,0
16.10.2017 17:00:00 15,4 11,2 15,5 16,1 12,2 9,9 16 9 30 16 SW 19 60 0,0
16.10.2017 16:00:00 16,4 10,6 17,4 16,6 11,8 9,9 13 7 27 15 SW 24 60 0,0
16.10.2017 15:00:00 16,1 11,0 17,5 16,6 11,2 9,9 20 11 31 17 SW 18 60 0,0
16.10.2017 14:00:00 15,7 10,0 17,0 15,8 10,7 9,8 22 12 34 18 SW 17 60 0,0
16.10.2017 13:00:00 15,2 9,9 16,9 14,4 10,3 9,8 23 12 36 19 SW 25 60 0,0
16.10.2017 12:00:00 13,9 10,2 15,3 12,5 9,9 9,8 26 14 35 19 SW 16 60 0,0
16.10.2017 11:00:00 12,4 10,1 13,4 10,5 9,8 9,8 27 14 36 19 SW 11 60 0,0
16.10.2017 10:00:00 10,7 10,3 11,5 9,4 9,8 9,8 21 11 31 17 WSW 2,0 25 0,0
16.10.2017 09:00:00 9,9 9,7 10,0 8,8 9,9 9,8 23 13 36 19 SW 0,1 0 0,0
16.10.2017 08:00:00 9,6 9,2 8,4 8,1 10,0 9,8 18 10 24 13 SW 0,4 0 0,0
16.10.2017 07:00:00 10,0 9,4 7,1 8,7 10,1 9,8 12 6 20 11 WSW 2,6 0 0,0
16.10.2017 06:00:00 10,7 10,3 10,0 9,3 10,2 9,8 19 10 29 16 WSW 0,8 0 0,0
16.10.2017 05:00:00 11,0 10,2 9,7 9,0 10,4 9,8 23 13 33 18 WSW 2,6 0 0,0
16.10.2017 04:00:00 12,0 10,4 10,3 9,1 10,5 9,8 21 12 30 16 WSW 10 0 0,0
16.10.2017 03:00:00 11,8 9,9 10,0 9,2 10,7 9,8 19 10 27 15 SW 13 0 0,0
16.10.2017 02:00:00 12,3 10,0 10,2 9,6 10,8 9,8 17 9 40 21 WSW 19 0 0,0
16.10.2017 01:00:00 12,7 9,8 11,0 9,7 11,0 9,8 29 16 44 24 WSW 26 0 0,0
16.10.2017 00:00:00 12,6 10,0 10,7 9,9 11,2 9,8 21 11 37 20 SW 24 0 0,0
15.10.2017 23:00:00 12,9 10,3 11,0 10,1 11,4 9,8 27 15 38 20 SW 23 0 0,0
15.10.2017 22:00:00 12,4 9,7 10,5 10,4 11,7 9,8 23 12 35 19 SW 28 0 0,0
15.10.2017 21:00:00 12,1 9,4 9,9 10,9 11,9 9,8 23 12 36 19 SW 33 0 0,0
15.10.2017 20:00:00 12,2 9,7 10,4 11,7 12,1 9,8 23 13 36 19 SW 29 0 0,0
15.10.2017 19:00:00 12,8 9,7 11,3 12,8 12,2 9,7 22 12 37 20 SW 29 28 0,0
15.10.2017 18:00:00 13,9 10,0 12,5 14,4 12,0 9,7 24 13 37 20 SW 35 60 0,0
15.10.2017 17:00:00 15,6 10,2 15,7 16,2 11,7 9,7 22 12 35 19 SW 31 60 0,0
15.10.2017 16:00:00 16,1 10,4 16,8 16,8 11,2 9,7 24 13 35 19 SSW 30 60 0,0
15.10.2017 15:00:00 16,4 10,1 17,6 16,8 10,5 9,7 23 12 35 19 SSW 31 60 0,0
15.10.2017 14:00:00 16,3 10,6 17,6 16,0 9,9 9,7 23 12 31 17 SW 24 60 0,0
15.10.2017 13:00:00 16,1 11,0 18,1 14,3 9,3 9,7 18 10 30 16 SW 21 60 0,0
15.10.2017 12:00:00 15,0 10,8 16,2 11,8 8,9 9,7 22 12 31 17 SW 27 60 0,0
15.10.2017 11:00:00 13,4 10,7 14,1 9,3 8,7 9,7 19 10 27 15 SW 14 60 0,0
15.10.2017 10:00:00 12,0 10,2 11,7 7,8 8,8 9,7 13 7 26 14 SSW 8 60 0,0
15.10.2017 09:00:00 10,1 9,4 8,7 7,1 8,9 9,7 15 8 21 11 SW 4,3 60 0,0
15.10.2017 08:00:00 9,9 9,1 8,0 7,2 9,0 9,7 14 8 24 13 SW 4,6 4 0,0
15.10.2017 07:00:00 9,7 9,0 7,9 7,3 9,1 9,7 15 8 23 12 SW 3,7 0 0,0
15.10.2017 06:00:00 9,8 9,2 7,9 7,6 9,3 9,7 17 9 25 14 SW 1,8 0 0,0
15.10.2017 05:00:00 10,3 9,7 8,6 7,8 9,4 9,7 20 11 27 15 SW 5 0 0,0
15.10.2017 04:00:00 10,3 9,7 8,8 7,9 9,6 9,7 16 9 22 12 SW 4,6 0 0,0
15.10.2017 03:00:00 10,5 9,7 8,1 8,1 9,7 9,7 13 7 16 9 SW 12 0 0,0
15.10.2017 02:00:00 11,0 10,0 9,3 8,3 9,9 9,7 10 6 13 7 SW 22 0 0,0
15.10.2017 01:00:00 11,0 10,2 8,8 8,5 10,1 9,7 10 5 14 8 SW 11 0 0,0
15.10.2017 00:00:00 10,9 10,2 8,6 8,8 10,2 9,7 10 6 15 8 SW 9 0 0,0
14.10.2017 23:00:00 10,8 10,2 9,0 9,1 10,4 9,7 11 6 15 8 SW 7 0 0,0
14.10.2017 22:00:00 11,2 10,4 9,0 9,6 10,6 9,7 10 5 16 9 WSW 9 0 0,0
14.10.2017 21:00:00 11,3 10,4 9,7 10,0 10,8 9,7 14 7 18 10 WSW 10 0 0,0
14.10.2017 20:00:00 11,5 10,5 10,1 10,6 10,9 9,7 14 8 23 13 SW 14 0 0,0
14.10.2017 19:00:00 12,0 10,9 10,7 11,3 10,9 9,7 18 10 26 14 SW 15 23 0,0
14.10.2017 18:00:00 12,9 11,1 11,6 12,2 10,9 9,7 15 8 25 14 SW 27 30 0,0
14.10.2017 17:00:00 13,2 11,1 12,4 13,0 10,8 9,7 14 8 31 17 SW 31 17 0,0
14.10.2017 16:00:00 13,3 11,2 12,9 13,6 10,5 9,7 19 11 32 17 SW 31 17 0,0
14.10.2017 15:00:00 13,2 11,4 13,4 13,9 10,2 9,7 20 11 32 17 SW 24 5 0,0
14.10.2017 14:00:00 12,9 11,2 14,0 13,8 9,8 9,7 18 10 35 19 SW 18 31 0,0
14.10.2017 13:00:00 12,1 11,0 13,1 12,4 9,6 9,7 19 10 31 17 SW 14 5 0,0
14.10.2017 12:00:00 11,4 10,9 12,3 11,4 9,3 9,7 21 11 33 18 SW 6 3 0,0
14.10.2017 11:00:00 10,7 10,4 11,3 10,7 9,2 9,7 24 13 37 20 SW 4,9 5 0,0
14.10.2017 10:00:00 10,1 9,8 10,6 9,9 9,1 9,7 18 10 27 15 SW 0,1 0 0,0
14.10.2017 09:00:00 10,0 9,7 10,1 9,5 9,1 9,7 17 9 28 15 WSW 0,1 0 0,0
14.10.2017 08:00:00 10,0 9,7 9,9 9,4 9,1 9,7 15 8 29 16 WSW 0,1 0 0,0
14.10.2017 07:00:00 10,0 9,7 9,9 9,3 9,1 9,7 18 10 26 14 SW 0,1 0 0,0
14.10.2017 06:00:00 10,1 9,9 10,0 9,3 9,0 9,7 13 7 21 11 SW 0,1 0 0,0
14.10.2017 05:00:00 10,0 9,7 9,9 9,2 9,0 9,7 12 7 20 11 WSW 0,1 0 0,0
14.10.2017 04:00:00 10,0 9,8 9,8 9,2 9,0 9,7 11 6 24 13 WSW 0,1 0 0,0
14.10.2017 03:00:00 10,0 9,7 9,9 9,1 9,0 9,7 11 6 26 14 SW 0,1 0 0,0
14.10.2017 02:00:00 9,9 9,7 9,8 9,0 9,0 9,7 17 9 28 15 WSW 0,1 0 0,0
14.10.2017 01:00:00 9,5 9,2 8,8 9,0 9,0 9,7 17 9 27 15 WSW 0,3 0 0,0
14.10.2017 00:00:00 9,7 9,5 9,5 9,0 9,0 9,7 16 8 27 15 WSW 0,1 0 0,0
13.10.2017 23:00:00 9,7 9,5 9,4 9,3 8,9 9,7 16 9 29 16 SW 0,1 0 0,0
13.10.2017 22:00:00 9,9 9,6 9,8 9,3 8,9 9,7 18 10 31 17 WSW 0,1 0 0,0
13.10.2017 21:00:00 9,9 9,6 9,8 9,4 8,9 9,7 19 10 27 15 WSW 0,1 0 0,0
13.10.2017 20:00:00 10,0 9,8 9,9 9,4 8,8 9,7 16 8 26 14 WSW 0,1 0 0,0
13.10.2017 19:00:00 10,0 9,7 9,9 9,5 8,7 9,7 15 8 32 17 WSW 0,1 0 0,0
13.10.2017 18:00:00 10,0 9,7 10,0 9,6 8,6 9,7 16 8 32 18 WSW 0,1 0 0,0
13.10.2017 17:00:00 9,9 9,6 10,1 9,6 8,5 9,7 20 11 35 19 WSW 2,1 0 0,0
13.10.2017 16:00:00 9,8 9,5 10,0 9,6 8,3 9,7 17 9 33 18 SW 3,1 0 0,0
13.10.2017 15:00:00 9,6 9,3 9,8 9,4 8,1 9,7 17 9 36 19 WSW 0,7 0 0,0
13.10.2017 14:00:00 9,5 9,3 10,0 9,1 7,9 9,7 22 12 40 21 WSW 0,2 0 0,0
13.10.2017 13:00:00 9,0 8,8 9,2 8,6 7,8 9,7 18 10 37 20 SW 0,2 0 0,0
13.10.2017 12:00:00 8,5 8,3 8,8 8,3 7,6 9,7 16 9 29 15 SW 0,2 0 0,0
13.10.2017 11:00:00 8,2 8,0 8,5 7,7 7,5 9,7 10 6 29 16 SW 0,1 0 0,0
13.10.2017 10:00:00 8,0 7,8 8,2 7,2 7,5 9,7 18 10 35 19 WSW 0,1 0 0,0
13.10.2017 09:00:00 7,6 7,4 7,5 6,7 7,4 9,7 16 9 35 19 WSW 0,1 0 0,0
13.10.2017 08:00:00 7,1 6,8 7,0 6,3 7,4 9,7 23 13 38 21 WSW 0,1 0 0,0
13.10.2017 07:00:00 6,7 6,5 6,6 5,9 7,5 9,7 20 11 35 19 WSW 0,1 0 0,0
13.10.2017 06:00:00 6,1 5,7 5,2 5,5 7,6 9,7 22 12 35 19 WSW 4,1 0 0,0
13.10.2017 05:00:00 5,9 5,5 5,0 5,7 7,8 9,7 23 13 42 23 WSW 4,6 0 0,0
13.10.2017 04:00:00 6,0 5,3 5,3 5,9 7,9 9,7 30 16 46 25 WSW 12 0 0,0
13.10.2017 03:00:00 6,0 5,3 5,4 5,8 8,1 9,7 28 15 41 22 WSW 14 0 0,0
13.10.2017 02:00:00 5,6 4,9 4,7 5,8 8,2 9,7 26 14 34 18 WSW 12 0 0,0
13.10.2017 01:00:00 5,8 4,9 4,6 6,2 8,4 9,7 19 10 41 22 WSW 16 0 0,0
13.10.2017 00:00:00 6,3 5,1 5,7 6,4 8,6 9,7 26 14 40 22 WSW 20 0 0,0
12.10.2017 23:00:00 6,4 5,0 5,5 6,7 8,8 9,7 20 11 34 18 WSW 25 0 0,0
12.10.2017 22:00:00 6,7 4,9 5,9 7,0 9,0 9,7 23 13 40 22 WSW 32 0 0,0
12.10.2017 21:00:00 6,7 4,9 5,8 7,4 9,3 9,7 29 15 43 23 WSW 35 0 0,0
12.10.2017 20:00:00 7,2 4,8 6,5 7,9 9,5 9,7 31 17 51 28 WSW 45 0 0,0
12.10.2017 19:00:00 7,4 4,7 6,3 8,7 9,6 9,7 31 17 47 26 WSW 52 0 0,0
12.10.2017 18:00:00 8,6 4,8 8,0 10,0 9,6 9,7 31 17 48 26 WSW 57 15 0,0
12.10.2017 17:00:00 9,6 5,5 9,7 11,0 9,5 9,7 29 16 51 28 WSW 42 40 0,0
12.10.2017 16:00:00 10,1 6,5 10,9 11,5 9,2 9,7 25 13 61 33 WSW 36 37 0,0
12.10.2017 15:00:00 10,5 7,1 12,4 11,5 9,0 9,7 34 18 57 31 WSW 32 39 0,0
12.10.2017 14:00:00 10,0 7,6 11,4 11,2 8,7 9,7 32 17 52 28 WSW 27 33 0,0
12.10.2017 13:00:00 9,3 7,8 10,4 10,6 8,5 9,7 32 17 59 32 WSW 29 28 0,0
12.10.2017 12:00:00 8,8 8,2 10,2 9,0 8,4 9,7 28 15 54 29 WSW 11 3 0,0
12.10.2017 11:00:00 8,7 8,4 8,8 8,5 8,4 9,7 23 13 46 25 WSW 0,1 0 0,0
12.10.2017 10:00:00 8,7 8,5 8,7 8,3 8,3 9,7 23 13 47 26 WSW - 0 0,0
12.10.2017 09:00:00 8,4 8,1 8,4 8,2 8,3 9,7 24 13 53 28 WSW - 0 1,0
12.10.2017 08:00:00 8,3 8,0 8,3 8,1 8,3 9,7 25 13 46 25 SW - 0 0,1
12.10.2017 07:00:00 8,2 8,0 8,1 8,1 8,3 9,7 22 12 49 26 SW - 0 0,0
12.10.2017 06:00:00 8,0 7,8 8,0 8,1 8,3 9,7 28 15 57 31 SW - 0 0,0
12.10.2017 05:00:00 8,1 7,8 8,1 8,1 8,3 9,7 38 20 59 32 SW - 0 0,0
12.10.2017 04:00:00 8,2 7,9 8,2 8,1 8,3 9,7 34 18 61 33 SW 0,1 0 0,0
12.10.2017 03:00:00 8,2 8,0 8,1 8,1 8,3 9,7 29 16 53 29 SW 0,1 0 0,0
12.10.2017 02:00:00 8,3 8,0 8,2 8,1 8,3 9,7 29 15 47 26 SW 0,1 0 0,0
12.10.2017 01:00:00 8,2 7,9 8,2 8,1 8,3 9,7 25 13 42 23 SW 2,3 0 0,0
12.10.2017 00:00:00 8,1 7,9 8,0 8,0 8,3 9,7 24 13 42 23 SW 0,2 0 0,0
11.10.2017 23:00:00 7,9 7,6 7,9 8,0 8,4 9,7 24 13 41 22 SW 1,1 0 0,0
11.10.2017 22:00:00 7,9 7,7 7,8 8,1 8,4 9,7 27 15 45 24 SW 0,2 0 0,0
11.10.2017 21:00:00 7,9 7,6 7,9 8,1 8,4 9,7 32 17 50 27 SW 0,1 0 0,0
11.10.2017 20:00:00 8,0 7,8 8,0 8,2 8,4 9,7 31 17 53 29 SW 0,1 0 0,0
11.10.2017 19:00:00 8,1 7,8 8,1 8,3 8,4 9,7 30 16 53 28 SW 0,1 0 0,0
11.10.2017 18:00:00 8,0 7,7 8,0 8,4 8,4 9,7 32 18 55 30 SW 0,2 0 0,0
11.10.2017 17:00:00 8,0 7,7 8,1 8,5 8,3 9,7 37 20 61 33 SW 1,8 0 0,0
11.10.2017 16:00:00 8,4 8,1 8,5 8,7 8,3 9,7 36 19 52 28 SW 0,3 0 0,0
11.10.2017 15:00:00 8,7 8,5 8,8 8,7 8,2 9,7 32 18 49 26 SW 0,1 0 0,0
11.10.2017 14:00:00 8,4 8,1 8,5 8,4 8,2 9,7 34 18 48 26 SW 0,1 0 0,0
11.10.2017 13:00:00 8,2 8,0 8,3 8,3 8,1 9,7 31 17 42 23 SSW 0,1 0 0,0
11.10.2017 12:00:00 8,1 7,8 8,1 8,2 8,1 9,7 25 13 48 26 SW 0,1 0 0,0
11.10.2017 11:00:00 8,1 7,9 8,3 8,2 8,0 9,7 22 12 42 23 SW 0,1 0 0,0

tt = Température de l'air
td = dewpoint
tt 5cm = Température de l'air 5cm
tt -5cm = Température de l'air -5cm
tt -20cm = Température de l'air -20cm
tt -100cm = Température de l'air -100cm
ff = Vitesse du vent
fx = gusts
dd = Direction du vent
vv = visibility
sd = Ensoleillement
rr = Quantités de précipitations

stations d'obs. à proximité